KCXE

Details ICAO KCXE
Name CHASE CITY MUNI
Region United States
Timezone America/New_York (UTC-5.0)
Plans Departing 1
Arriving 2
Stats Elevation 503 ft / 153 m (AMSL)
Location 36.788323° -78.501548°
Runways 1
Magnetic Variation 9.529° W
Sunrise 2017-12-15 12:20:59 UTC / 2017-12-15 07:20:59 Local
Sunset 2017-12-15 22:00:20 UTC / 2017-12-15 17:00:20 Local
Advertisement - Login to hide

Runways

ID Width Length Bearing (true) Bearing (mag) Surface Threshold Offset Overrun Length
18 50 ft / 15 m 3,407 ft / 1,039 m 174.64° 184.17° Asphalt 0 ft / 0 m 0 ft / 0 m
36 50 ft / 15 m 3,407 ft / 1,039 m 354.64° 4.17° Asphalt 0 ft / 0 m 0 ft / 0 m

Map

Weather


0- 5 10 15 20 25 30 35+ Temperature / ° C

Clouds and Precipitation
Forecast for 2017-12-15 18:00 UTC. Updated an hour ago

Ground ~20,000 ft ~40,000 ft Winds

METAR

KCXE 151615Z AUTO 00000KT 10SM OVC024 01/M06 A2999 RMK AO1 T00091062

TAF

Not found

Frequencies

Unicom 122.90 MHz CTAF
Warning: Do not use this data for real-world aviation or navigation. No guarantee of current accuracy is given.